createdAt,value
2022-12-26T00:00:40.974Z,22.23
2022-12-26T00:03:26.661Z,24.98
2022-12-26T00:06:21.126Z,22.13
2022-12-26T00:09:07.509Z,22.40
2022-12-26T00:11:53.156Z,21.42
2022-12-26T00:14:39.200Z,23.05
2022-12-26T00:17:24.954Z,25.15
2022-12-26T00:20:10.674Z,22.70
2022-12-26T00:22:56.220Z,25.83
2022-12-26T00:25:42.256Z,25.15
2022-12-26T00:28:27.606Z,25.67
2022-12-26T00:31:15.890Z,27.45
2022-12-26T00:34:01.999Z,28.75
2022-12-26T00:36:47.522Z,26.23
2022-12-26T00:39:33.278Z,25.65
2022-12-26T00:42:18.637Z,24.33
2022-12-26T00:45:04.409Z,24.95
2022-12-26T00:47:49.510Z,25.60
2022-12-26T00:50:35.225Z,23.33
2022-12-26T00:53:21.320Z,23.35
2022-12-26T00:56:07.241Z,23.90
2022-12-26T00:58:52.804Z,19.88
2022-12-26T01:01:38.511Z,23.27
2022-12-26T01:04:23.619Z,20.77
2022-12-26T01:07:09.321Z,20.13
2022-12-26T01:09:54.621Z,22.67
2022-12-26T01:12:40.152Z,20.00
2022-12-26T01:15:25.840Z,18.02
2022-12-26T01:18:11.198Z,16.98
2022-12-26T01:21:02.297Z,16.38
2022-12-26T01:23:47.928Z,15.02
2022-12-26T01:26:33.519Z,15.93
2022-12-26T01:29:18.999Z,16.00
2022-12-26T01:32:05.243Z,17.10
2022-12-26T01:34:52.496Z,16.20
2022-12-26T01:37:38.380Z,16.13
2022-12-26T01:40:24.153Z,17.40
2022-12-26T01:43:13.024Z,21.55
2022-12-26T01:45:58.698Z,19.17
2022-12-26T01:48:45.890Z,19.98
2022-12-26T01:51:36.297Z,17.65
2022-12-26T01:54:41.419Z,17.23
2022-12-26T01:57:33.553Z,19.52
2022-12-26T02:00:18.679Z,17.88
2022-12-26T02:03:26.363Z,18.02
2022-12-26T02:06:14.630Z,16.05
2022-12-26T02:09:00.874Z,18.40
2022-12-26T02:12:33.798Z,16.38
2022-12-26T02:14:58.912Z,17.80
2022-12-26T02:17:44.793Z,19.67
2022-12-26T02:20:40.034Z,19.33
2022-12-26T02:23:53.055Z,17.17
2022-12-26T02:27:10.230Z,17.13
2022-12-26T02:30:12.858Z,19.00
2022-12-26T02:33:20.876Z,19.00
2022-12-26T02:36:26.779Z,18.70
2022-12-26T02:39:43.897Z,19.00
2022-12-26T02:42:38.358Z,17.83
2022-12-26T02:46:03.110Z,20.58
2022-12-26T02:49:02.924Z,20.65
2022-12-26T02:52:24.432Z,19.20
2022-12-26T02:55:34.836Z,17.95
2022-12-26T02:59:04.324Z,20.63
2022-12-26T03:02:10.604Z,17.35
2022-12-26T03:05:16.619Z,17.40
2022-12-26T03:08:23.605Z,17.95
2022-12-26T03:11:28.332Z,18.08
2022-12-26T03:14:46.077Z,18.92
2022-12-26T03:17:56.374Z,17.60
2022-12-26T03:20:41.826Z,17.17
2022-12-26T03:23:28.724Z,18.98
2022-12-26T03:26:39.548Z,17.30
2022-12-26T03:29:43.350Z,17.70
2022-12-26T03:32:41.323Z,17.80
2022-12-26T03:35:31.488Z,19.55
2022-12-26T03:38:22.680Z,15.70
2022-12-26T03:41:40.419Z,17.83
2022-12-26T03:45:01.710Z,14.70
2022-12-26T03:48:11.721Z,15.05
2022-12-26T03:51:25.674Z,14.95
2022-12-26T03:54:53.047Z,18.23
2022-12-26T03:58:19.867Z,18.80
2022-12-26T04:01:29.042Z,18.13
2022-12-26T04:04:34.866Z,18.58
2022-12-26T04:07:56.198Z,18.48
2022-12-26T04:11:09.306Z,18.73
2022-12-26T04:14:22.181Z,18.90
2022-12-26T04:17:39.917Z,20.10
2022-12-26T04:20:35.787Z,19.83
2022-12-26T04:24:01.648Z,19.30
2022-12-26T04:27:09.113Z,21.65
2022-12-26T04:30:13.968Z,18.85
2022-12-26T04:33:30.370Z,18.42
2022-12-26T04:36:42.829Z,18.08
2022-12-26T04:39:52.096Z,17.75
2022-12-26T04:42:58.277Z,16.85
2022-12-26T04:45:43.955Z,18.17
2022-12-26T04:48:47.688Z,20.10
2022-12-26T04:51:33.496Z,17.50
2022-12-26T04:54:18.944Z,16.02
2022-12-26T04:57:04.599Z,18.05
2022-12-26T04:59:50.259Z,16.73
2022-12-26T05:02:54.669Z,17.17
2022-12-26T05:06:01.559Z,14.95
2022-12-26T05:09:06.095Z,15.60
2022-12-26T05:11:51.402Z,13.68
2022-12-26T05:14:37.237Z,11.77
2022-12-26T05:17:41.164Z,13.48
2022-12-26T05:20:49.531Z,12.32
2022-12-26T05:23:53.426Z,11.60
2022-12-26T05:26:57.777Z,12.10
2022-12-26T05:29:42.860Z,10.77
2022-12-26T05:32:46.909Z,10.60
2022-12-26T05:35:33.729Z,9.27
2022-12-26T05:38:19.685Z,10.52
2022-12-26T05:41:06.701Z,10.00
2022-12-26T05:43:52.486Z,9.85
2022-12-26T05:46:39.077Z,9.90
2022-12-26T05:49:24.929Z,9.23
2022-12-26T05:52:10.653Z,10.13
2022-12-26T05:54:56.374Z,10.02
2022-12-26T05:57:41.840Z,8.88
2022-12-26T06:00:27.908Z,9.20
2022-12-26T06:03:13.873Z,7.65
2022-12-26T06:05:59.543Z,8.65
2022-12-26T06:08:48.262Z,7.57
2022-12-26T06:11:33.544Z,9.77
2022-12-26T06:14:18.978Z,8.93
2022-12-26T06:17:04.577Z,8.65
2022-12-26T06:19:50.363Z,7.95
2022-12-26T06:22:35.832Z,8.00
2022-12-26T06:25:21.316Z,7.65
2022-12-26T06:28:06.803Z,9.48
2022-12-26T06:30:52.697Z,10.32
2022-12-26T06:33:38.622Z,7.50
2022-12-26T06:36:26.463Z,7.70
2022-12-26T06:39:12.113Z,6.10
2022-12-26T06:41:57.656Z,5.63
2022-12-26T06:44:44.634Z,5.80
2022-12-26T06:47:30.206Z,6.43
2022-12-26T06:50:15.979Z,5.68
2022-12-26T06:53:01.410Z,6.47
2022-12-26T06:55:46.990Z,6.97
2022-12-26T06:58:32.535Z,4.47
2022-12-26T07:01:19.610Z,7.00
2022-12-26T07:04:06.077Z,5.25
2022-12-26T07:06:51.465Z,6.28
2022-12-26T07:09:37.091Z,7.50
2022-12-26T07:12:22.981Z,5.25
2022-12-26T07:15:10.133Z,5.72
2022-12-26T07:17:55.759Z,6.82
2022-12-26T07:20:40.934Z,7.40
2022-12-26T07:23:26.526Z,7.13
2022-12-26T07:26:11.992Z,5.60
2022-12-26T07:28:58.469Z,6.05
2022-12-26T07:31:44.624Z,6.38
2022-12-26T07:34:31.846Z,6.18
2022-12-26T07:37:18.611Z,7.22
2022-12-26T07:40:04.701Z,7.50
2022-12-26T07:42:53.494Z,6.47
2022-12-26T07:45:45.310Z,7.68
2022-12-26T07:48:31.393Z,6.47
2022-12-26T07:51:16.985Z,6.68
2022-12-26T07:54:07.318Z,8.50
2022-12-26T07:57:15.181Z,9.55
2022-12-26T08:00:04.853Z,8.18
2022-12-26T08:03:02.733Z,7.20
2022-12-26T08:05:51.954Z,6.18
2022-12-26T08:08:37.651Z,7.05
2022-12-26T08:11:24.523Z,7.97
2022-12-26T08:14:12.381Z,9.52
2022-12-26T08:16:57.811Z,7.50
2022-12-26T08:19:43.394Z,8.25
2022-12-26T08:22:28.821Z,7.57
2022-12-26T08:25:15.547Z,8.15
2022-12-26T08:28:03.828Z,7.82
2022-12-26T08:30:50.090Z,7.18
2022-12-26T08:33:35.810Z,4.90
2022-12-26T08:36:21.643Z,7.72
2022-12-26T08:39:07.445Z,12.07
2022-12-26T08:41:52.995Z,12.07
2022-12-26T08:44:38.462Z,8.18
2022-12-26T08:47:26.602Z,7.05
2022-12-26T08:50:12.259Z,12.07
2022-12-26T08:52:58.197Z,8.88
2022-12-26T08:55:43.251Z,14.63
2022-12-26T08:58:29.588Z,17.00
2022-12-26T09:01:23.451Z,16.95
2022-12-26T09:04:08.817Z,18.20
2022-12-26T09:06:54.507Z,17.75
2022-12-26T09:09:39.919Z,15.00
2022-12-26T09:12:25.302Z,12.80
2022-12-26T09:15:10.673Z,16.90
2022-12-26T09:17:56.093Z,12.23
2022-12-26T09:20:42.533Z,11.95
2022-12-26T09:23:28.868Z,15.57
2022-12-26T09:26:16.882Z,11.82
2022-12-26T09:29:02.546Z,13.00
2022-12-26T09:31:48.070Z,10.38
2022-12-26T09:34:33.561Z,13.73
2022-12-26T09:37:20.524Z,8.10
2022-12-26T09:40:10.808Z,9.23
2022-12-26T09:43:20.710Z,7.97
2022-12-26T09:46:30.344Z,11.32
2022-12-26T09:49:20.289Z,6.82
2022-12-26T09:52:12.754Z,10.18
2022-12-26T09:55:02.652Z,9.10
2022-12-26T09:57:52.517Z,9.25
2022-12-26T10:00:45.800Z,6.95
2022-12-26T10:03:34.965Z,5.03
2022-12-26T10:06:25.577Z,6.95
2022-12-26T10:09:48.100Z,4.78
2022-12-26T10:12:50.389Z,7.20
2022-12-26T10:15:57.604Z,6.47
2022-12-26T10:19:09.479Z,5.45
2022-12-26T10:22:03.608Z,7.13
2022-12-26T10:24:50.322Z,6.28
2022-12-26T10:27:41.050Z,10.27
2022-12-26T10:30:35.345Z,8.38
2022-12-26T10:33:43.419Z,4.90
2022-12-26T10:36:40.548Z,10.80
2022-12-26T10:39:34.718Z,8.52
2022-12-26T10:43:01.889Z,6.57
2022-12-26T10:46:02.883Z,7.32
2022-12-26T10:48:48.507Z,8.38
2022-12-26T10:51:34.076Z,6.57
2022-12-26T10:54:20.296Z,6.57
2022-12-26T10:57:08.402Z,6.45
2022-12-26T10:59:56.029Z,7.70
2022-12-26T11:02:41.684Z,6.80
2022-12-26T11:05:48.838Z,4.63
2022-12-26T11:08:47.635Z,6.80
2022-12-26T11:11:47.582Z,6.05
2022-12-26T11:14:37.567Z,6.22
2022-12-26T11:17:33.647Z,4.55
2022-12-26T11:20:30.533Z,4.18
2022-12-26T11:23:25.737Z,6.93
2022-12-26T11:26:40.918Z,7.13
2022-12-26T11:29:27.527Z,7.43
2022-12-26T11:32:20.893Z,5.50
2022-12-26T11:35:07.107Z,5.05
2022-12-26T11:37:56.427Z,5.50
2022-12-26T11:41:11.221Z,4.50
2022-12-26T11:44:23.539Z,6.53
2022-12-26T11:47:14.480Z,5.72
2022-12-26T11:50:09.380Z,4.57
2022-12-26T11:52:57.723Z,5.28
2022-12-26T11:55:44.004Z,5.95
2022-12-26T11:58:31.828Z,7.47
2022-12-26T12:01:19.990Z,10.20
2022-12-26T12:04:05.745Z,7.13
2022-12-26T12:07:04.007Z,8.73
2022-12-26T12:09:55.615Z,5.18
2022-12-26T12:12:51.985Z,5.85
2022-12-26T12:16:28.515Z,4.82
2022-12-26T12:19:42.623Z,7.07
2022-12-26T12:22:45.499Z,8.32
2022-12-26T12:26:06.147Z,7.03
2022-12-26T12:29:12.245Z,3.85
2022-12-26T12:32:10.384Z,6.72
2022-12-26T12:35:22.350Z,4.72
2022-12-26T12:38:30.798Z,7.68
2022-12-26T12:41:49.429Z,6.90
2022-12-26T12:45:12.713Z,5.00
2022-12-26T12:48:03.931Z,6.60
2022-12-26T12:51:05.570Z,6.00
2022-12-26T12:54:26.870Z,3.45
2022-12-26T12:57:45.637Z,8.55
2022-12-26T13:00:48.989Z,6.82
2022-12-26T13:03:41.817Z,5.13
2022-12-26T13:06:38.893Z,6.68
2022-12-26T13:09:31.564Z,6.60
2022-12-26T13:12:29.083Z,4.43
2022-12-26T13:15:29.693Z,6.82
2022-12-26T13:18:23.196Z,5.63
2022-12-26T13:21:12.959Z,6.60
2022-12-26T13:24:24.038Z,6.72
2022-12-26T13:27:25.637Z,5.43
2022-12-26T13:30:17.216Z,6.55
2022-12-26T13:33:03.844Z,6.57
2022-12-26T13:35:59.064Z,4.60
2022-12-26T13:39:04.404Z,6.75
2022-12-26T13:42:11.550Z,3.63
2022-12-26T13:45:35.118Z,4.22
2022-12-26T13:48:29.844Z,5.57
2022-12-26T13:51:47.846Z,7.95
2022-12-26T13:54:33.945Z,5.18
2022-12-26T13:57:31.436Z,3.85
2022-12-26T14:00:25.933Z,6.63
2022-12-26T14:03:45.473Z,5.38
2022-12-26T14:07:12.633Z,4.82
2022-12-26T14:10:07.230Z,8.50
2022-12-26T14:13:31.057Z,5.28
2022-12-26T14:16:20.255Z,7.22
2022-12-26T14:19:27.122Z,3.75
2022-12-26T14:22:15.419Z,7.60
2022-12-26T14:25:13.119Z,5.18
2022-12-26T14:28:22.784Z,9.32
2022-12-26T14:31:34.240Z,5.85
2022-12-26T14:35:07.384Z,10.32
2022-12-26T14:38:20.158Z,9.07
2022-12-26T14:43:57.905Z,7.35
2022-12-26T14:46:43.619Z,6.55
2022-12-26T14:49:39.155Z,9.45
2022-12-26T14:52:24.295Z,8.75
2022-12-26T14:55:46.648Z,10.48
2022-12-26T14:58:31.780Z,8.60
2022-12-26T15:01:17.967Z,4.45
2022-12-26T15:04:27.722Z,7.07
2022-12-26T15:07:37.974Z,10.73
2022-12-26T15:10:49.725Z,6.82
2022-12-26T15:13:48.726Z,7.83
2022-12-26T15:16:59.818Z,15.40
2022-12-26T15:20:00.738Z,6.68
2022-12-26T15:23:05.060Z,7.00
2022-12-26T15:26:05.327Z,6.32
2022-12-26T15:29:22.883Z,12.38
2022-12-26T15:32:19.776Z,6.63
2022-12-26T15:35:18.641Z,5.57
2022-12-26T15:38:21.174Z,5.03
2022-12-26T15:41:31.115Z,10.83
2022-12-26T15:44:57.485Z,5.97
2022-12-26T15:48:01.325Z,8.70
2022-12-26T15:51:05.446Z,7.15
2022-12-26T15:54:07.987Z,9.05
2022-12-26T15:57:09.916Z,5.85
2022-12-26T16:00:13.831Z,3.92
2022-12-26T16:03:13.547Z,8.25
2022-12-26T16:06:41.777Z,8.63
2022-12-26T16:09:52.989Z,6.10
2022-12-26T16:12:40.664Z,6.35
2022-12-26T16:15:26.404Z,5.60
2022-12-26T16:18:22.437Z,6.78
2022-12-26T16:21:38.842Z,7.82
2022-12-26T16:24:24.171Z,8.20
2022-12-26T16:27:16.596Z,7.30
2022-12-26T16:30:13.058Z,5.53
2022-12-26T16:33:00.294Z,4.70
2022-12-26T16:35:46.081Z,4.13
2022-12-26T16:38:32.663Z,5.30
2022-12-26T16:41:32.666Z,5.22
2022-12-26T16:44:39.085Z,4.35
2022-12-26T16:47:32.362Z,4.82
2022-12-26T16:50:22.013Z,8.90
2022-12-26T16:53:17.135Z,6.82
2022-12-26T16:56:31.189Z,4.97
2022-12-26T16:59:24.025Z,6.97
2022-12-26T17:02:17.935Z,5.15
2022-12-26T17:05:08.259Z,4.25
2022-12-26T17:07:55.755Z,6.43
2022-12-26T17:10:47.517Z,7.68
2022-12-26T17:13:32.693Z,6.78
2022-12-26T17:16:18.405Z,8.23
2022-12-26T17:19:21.643Z,6.50
2022-12-26T17:22:35.717Z,4.05
2022-12-26T17:25:27.874Z,5.65
2022-12-26T17:28:17.951Z,4.88
2022-12-26T17:31:16.487Z,7.53
2022-12-26T17:34:15.600Z,6.47
2022-12-26T17:37:20.682Z,5.40
2022-12-26T17:40:15.377Z,6.75
2022-12-26T17:43:12.775Z,6.30
2022-12-26T17:45:58.088Z,6.57
2022-12-26T17:48:44.652Z,7.25
2022-12-26T17:51:30.547Z,6.38
2022-12-26T17:54:17.077Z,4.78
2022-12-26T17:57:02.525Z,6.07
2022-12-26T17:59:49.510Z,6.72
2022-12-26T18:02:35.023Z,5.95
2022-12-26T18:05:20.839Z,5.38
2022-12-26T18:08:07.487Z,5.60
2022-12-26T18:10:52.895Z,5.32
2022-12-26T18:13:38.665Z,4.70
2022-12-26T18:16:28.073Z,7.38
2022-12-26T18:19:15.925Z,4.88
2022-12-26T18:22:01.980Z,5.30
2022-12-26T18:24:47.141Z,5.47
2022-12-26T18:27:33.786Z,3.78
2022-12-26T18:30:22.597Z,5.05
2022-12-26T18:33:10.988Z,4.53
2022-12-26T18:35:56.812Z,4.93
2022-12-26T18:38:42.625Z,4.85
2022-12-26T18:41:28.381Z,6.38
2022-12-26T18:44:16.089Z,5.82
2022-12-26T18:47:01.560Z,6.32
2022-12-26T18:49:47.383Z,4.43
2022-12-26T18:52:32.506Z,5.82
2022-12-26T18:55:18.218Z,5.32
2022-12-26T18:58:03.528Z,6.38
2022-12-26T19:00:48.792Z,7.80
2022-12-26T19:03:34.141Z,5.70
2022-12-26T19:06:23.391Z,6.18
2022-12-26T19:09:12.888Z,6.70
2022-12-26T19:11:58.772Z,4.32
2022-12-26T19:14:44.909Z,4.43
2022-12-26T19:17:30.298Z,4.13
2022-12-26T19:20:21.370Z,5.50
2022-12-26T19:23:06.629Z,5.47
2022-12-26T19:25:51.897Z,5.60
2022-12-26T19:28:38.308Z,7.10
2022-12-26T19:31:24.107Z,5.82
2022-12-26T19:34:10.297Z,6.43
2022-12-26T19:36:55.753Z,6.28
2022-12-26T19:39:41.264Z,5.68
2022-12-26T19:42:26.909Z,6.03
2022-12-26T19:45:12.326Z,3.83
2022-12-26T19:47:58.372Z,4.05
2022-12-26T19:50:43.915Z,6.57
2022-12-26T19:53:29.378Z,5.80
2022-12-26T19:56:16.466Z,6.25
2022-12-26T19:59:01.716Z,3.95
2022-12-26T20:01:47.111Z,4.95
2022-12-26T20:04:32.473Z,7.93
2022-12-26T20:07:17.873Z,5.32
2022-12-26T20:10:04.530Z,5.28
2022-12-26T20:12:49.881Z,4.78
2022-12-26T20:15:35.247Z,5.32
2022-12-26T20:18:20.777Z,5.97
2022-12-26T20:21:07.717Z,6.47
2022-12-26T20:23:53.309Z,4.60
2022-12-26T20:26:39.936Z,6.30
2022-12-26T20:29:25.470Z,6.88
2022-12-26T20:32:11.311Z,4.55
2022-12-26T20:34:57.066Z,10.00
2022-12-26T20:37:42.128Z,10.13
2022-12-26T20:40:27.588Z,4.53
2022-12-26T20:43:13.068Z,4.85
2022-12-26T20:46:07.347Z,6.90
2022-12-26T20:48:53.384Z,6.80
2022-12-26T20:51:41.370Z,6.68
2022-12-26T20:54:27.220Z,7.28
2022-12-26T20:57:12.381Z,6.63
2022-12-26T20:59:58.141Z,8.70
2022-12-26T21:02:43.513Z,5.50
2022-12-26T21:05:28.882Z,7.07
2022-12-26T21:08:14.208Z,4.22
2022-12-26T21:11:14.315Z,5.65
2022-12-26T21:14:02.485Z,6.82
2022-12-26T21:16:54.245Z,5.82
2022-12-26T21:19:39.563Z,7.03
2022-12-26T21:22:25.832Z,5.72
2022-12-26T21:25:11.020Z,7.35
2022-12-26T21:27:59.382Z,6.95
2022-12-26T21:30:45.218Z,6.65
2022-12-26T21:33:30.868Z,8.23
2022-12-26T21:36:16.540Z,8.85
2022-12-26T21:39:07.502Z,5.75
2022-12-26T21:41:53.009Z,5.65
2022-12-26T21:44:38.527Z,5.40
2022-12-26T21:47:24.163Z,5.65
2022-12-26T21:50:09.562Z,6.18
2022-12-26T21:52:55.858Z,5.05
2022-12-26T21:55:41.649Z,7.05
2022-12-26T21:58:27.635Z,8.75
2022-12-26T22:01:21.414Z,3.95
2022-12-26T22:04:20.763Z,4.45
2022-12-26T22:07:05.942Z,6.95
2022-12-26T22:09:52.170Z,6.50
2022-12-26T22:12:55.720Z,7.75
2022-12-26T22:16:04.581Z,4.97
2022-12-26T22:18:50.203Z,6.18
2022-12-26T22:21:35.810Z,8.25
2022-12-26T22:24:21.810Z,7.88
2022-12-26T22:27:07.080Z,7.38
2022-12-26T22:29:52.587Z,4.15
2022-12-26T22:32:38.379Z,7.22
2022-12-26T22:35:23.522Z,5.53
2022-12-26T22:38:09.034Z,6.78
2022-12-26T22:40:56.503Z,4.25
2022-12-26T22:43:43.355Z,5.32
2022-12-26T22:46:28.565Z,7.65
2022-12-26T22:49:13.956Z,5.75
2022-12-26T22:51:59.599Z,6.93
2022-12-26T22:54:46.039Z,6.07
2022-12-26T22:57:31.001Z,5.03
2022-12-26T23:00:16.705Z,11.35
2022-12-26T23:03:02.074Z,5.43
2022-12-26T23:05:48.293Z,4.97
2022-12-26T23:08:33.689Z,7.53
2022-12-26T23:11:19.712Z,10.02
2022-12-26T23:14:06.771Z,5.88
2022-12-26T23:16:57.816Z,7.28
2022-12-26T23:20:13.880Z,7.05
2022-12-26T23:22:59.560Z,7.47
2022-12-26T23:25:44.604Z,7.53
2022-12-26T23:28:48.843Z,6.43
2022-12-26T23:31:34.892Z,7.82
2022-12-26T23:34:20.589Z,7.93
2022-12-26T23:37:06.017Z,6.85
2022-12-26T23:39:51.603Z,7.68
2022-12-26T23:42:37.607Z,8.82
2022-12-26T23:45:23.234Z,7.18
2022-12-26T23:48:08.627Z,7.10
2022-12-26T23:51:06.282Z,9.57
2022-12-26T23:53:51.902Z,5.40
2022-12-26T23:56:37.471Z,8.63
2022-12-26T23:59:23.240Z,8.60
